»·PEaware :: N2102W KCMA-KBFL

N2102W :: KCMA-KBFL

FLIGHT INFORMATION

Flight Status: Arrived
Operator: Privately registered:
United States
More flights under this callsign
Pilot: Eric G. (5941)
Aircraft: BEECH AIRCRAFT PREMIER
(PRM1)
More flights by this aircraft type
Origin: KCMA Camarillo
United States
Destination: KBFL Meadows
United States
More flights between these airports :: More routes between these airports
Route: GMN FASTO2
File this flight plan on PilotEdge
Remarks:
Altitude:
(Current/Filed)
16,000ft
Speed:
(Current/Filed)
250kts
Departed: 13-Jan-18 01:39 PM
Arrived: 13-Jan-18 02:06 PM
Distance/Time
Traveled:
73nm/0:27
Distance/Time
To Go:
Arrived

Flight Plot

Page will automatically refresh every two minutes.

Flight plan parsing failed; only flown route is shown


Map Options




Map Legend


Flown Route
Filed Route
Departure Airport
Arrival Airport
Navaid (VOR, NDB)
Fix

Horizontal Profiles

Position Reports

Time Latitude Longitude Heading Altitude Ground
Speed
13-Jan-18 13:28 34.210163 -119.075895 314 80ft 0kts
13-Jan-18 13:29 34.210163 -119.075895 314 80ft 0kts
13-Jan-18 13:30 34.210163 -119.075895 314 80ft 0kts
13-Jan-18 13:31 34.210163 -119.075895 314 80ft 0kts
13-Jan-18 13:32 34.210164 -119.075895 314 80ft 0kts
13-Jan-18 13:33 34.210165 -119.075897 314 80ft 0kts
13-Jan-18 13:34 34.210166 -119.075898 314 80ft 0kts
13-Jan-18 13:35 34.210167 -119.075899 314 80ft 0kts
13-Jan-18 13:36 34.210262 -119.076016 314 80ft 4kts
13-Jan-18 13:37 34.210931 -119.079112 268 80ft 18kts
13-Jan-18 13:38 34.210966 -119.086065 271 80ft 29kts
13-Jan-18 13:39 34.211076 -119.097952 270 80ft 34kts
13-Jan-18 13:40 34.212927 -119.103988 339 80ft 0kts
13-Jan-18 13:41 34.212929 -119.103989 339 80ft 0kts
13-Jan-18 13:42 34.212931 -119.103989 339 80ft 0kts
13-Jan-18 13:43 34.213015 -119.104027 339 80ft 0kts
13-Jan-18 13:44 34.213872 -119.103950 88 80ft 0kts
13-Jan-18 13:45 34.210452 -119.070278 123 1324ft 161kts
13-Jan-18 13:46 34.167219 -119.097790 243 4562ft 236kts
13-Jan-18 13:47 34.138164 -119.171661 239 6254ft 247kts
13-Jan-18 13:48 34.080658 -119.195782 137 8020ft 241kts
13-Jan-18 13:49 34.095761 -119.133251 20 10198ft 263kts
13-Jan-18 13:50 34.161355 -119.111371 13 13888ft 281kts
13-Jan-18 13:51 34.243931 -119.087970 11 15968ft 338kts
13-Jan-18 13:52 34.334511 -119.059813 17 16011ft 335kts
13-Jan-18 13:53 34.421108 -119.019581 18 16032ft 329kts
13-Jan-18 13:54 34.507378 -118.984767 15 16080ft 324kts
13-Jan-18 13:55 34.592066 -118.950265 18 16126ft 305kts
13-Jan-18 13:56 34.660250 -118.921124 15 16162ft 238kts
13-Jan-18 13:57 34.723988 -118.894765 16 15418ft 225kts
13-Jan-18 13:58 34.778776 -118.871848 16 14195ft 193kts
13-Jan-18 13:59 34.840024 -118.852711 0 13251ft 238kts
13-Jan-18 14:00 34.904037 -118.858466 354 10293ft 228kts
13-Jan-18 14:01 34.965270 -118.859602 1 7688ft 211kts
13-Jan-18 14:02 35.024468 -118.859892 1 6185ft 228kts
13-Jan-18 14:03 35.085464 -118.860359 1 5613ft 204kts
13-Jan-18 14:04 35.140182 -118.861187 1 4896ft 200kts
13-Jan-18 14:05 35.195248 -118.861527 1 4922ft 232kts
13-Jan-18 14:06 35.251765 -118.862249 358 4849ft 214kts
13-Jan-18 14:07 35.298449 -118.893542 310 4207ft 209kts
13-Jan-18 14:08 35.339494 -118.942766 327 3186ft 204kts
13-Jan-18 14:09 35.372029 -118.980834 315 1930ft 139kts
13-Jan-18 14:10 35.399460 -119.014922 313 1383ft 139kts
13-Jan-18 14:11 35.425428 -119.046035 313 729ft 121kts
13-Jan-18 14:12 35.439917 -119.062686 356 512ft 2kts
13-Jan-18 14:13 35.440418 -119.062719 356 512ft 0kts
13-Jan-18 14:14 35.438253 -119.059283 135 512ft 22kts
13-Jan-18 14:15 35.436527 -119.054893 7 512ft 10kts
13-Jan-18 14:16 35.436955 -119.054811 47 512ft 0kts
13-Jan-18 14:17 35.436957 -119.054810 47 512ft 0kts
13-Jan-18 14:18 35.436958 -119.054808 47 512ft 0kts
13-Jan-18 14:19 35.436960 -119.054806 47 512ft 0kts
13-Jan-18 14:20 35.436961 -119.054804 47 512ft 0kts
13-Jan-18 14:21 35.436962 -119.054802 47 512ft 0kts
13-Jan-18 14:22 35.436964 -119.054800 47 512ft 0kts
13-Jan-18 14:23 35.436965 -119.054798 47 512ft 0kts
13-Jan-18 14:24 35.436967 -119.054796 47 512ft 0kts
13-Jan-18 14:25 35.436968 -119.054794 47 512ft 0kts
13-Jan-18 14:26 35.436970 -119.054793 47 512ft 0kts
13-Jan-18 14:27 35.436971 -119.054791 47 512ft 0kts

Navigation Log

Ident Type
Flight plan parsing failed, navigation log unavailable